sensor_id;sensor_type;location;lat;lon;timestamp;pressure;altitude;pressure_sealevel;temperature;humidity
3796;BME280;1913;50.660;7.834;2023-06-14T00:00:36;151874.72;;;15.52;69.93
3796;BME280;1913;50.660;7.834;2023-06-14T00:03:04;151896.13;;;15.61;67.75
3796;BME280;1913;50.660;7.834;2023-06-14T00:05:29;151883.56;;;15.56;69.49
3796;BME280;1913;50.660;7.834;2023-06-14T00:07:57;151891.13;;;15.59;66.85
3796;BME280;1913;50.660;7.834;2023-06-14T00:10:25;151903.72;;;15.64;66.45
3796;BME280;1913;50.660;7.834;2023-06-14T00:12:55;151904.97;;;15.65;64.82
3796;BME280;1913;50.660;7.834;2023-06-14T00:15:21;151916.41;;;15.69;64.25
3796;BME280;1913;50.660;7.834;2023-06-14T00:17:46;151932.78;;;15.76;60.76
3796;BME280;1913;50.660;7.834;2023-06-14T00:20:12;151928.97;;;15.74;61.69
3796;BME280;1913;50.660;7.834;2023-06-14T00:22:37;151950.44;;;15.83;60.95
3796;BME280;1913;50.660;7.834;2023-06-14T00:25:04;151957.97;;;15.86;59.56
3796;BME280;1913;50.660;7.834;2023-06-14T00:27:30;151959.28;;;15.87;59.81
3796;BME280;1913;50.660;7.834;2023-06-14T00:29:55;151965.53;;;15.89;59.45
3796;BME280;1913;50.660;7.834;2023-06-14T00:32:23;151969.34;;;15.91;58.25
3796;BME280;1913;50.660;7.834;2023-06-14T00:34:51;151998.34;;;16.02;58.18
3796;BME280;1913;50.660;7.834;2023-06-14T00:37:16;152004.66;;;16.05;57.90
3796;BME280;1913;50.660;7.834;2023-06-14T00:39:41;152018.50;;;16.11;56.49
3796;BME280;1913;50.660;7.834;2023-06-14T00:42:07;152052.56;;;16.24;54.59
3796;BME280;1913;50.660;7.834;2023-06-14T00:44:32;152114.38;;;16.49;53.33
3796;BME280;1913;50.660;7.834;2023-06-14T00:46:57;152132.03;;;16.57;53.07
3796;BME280;1913;50.660;7.834;2023-06-14T00:49:23;152139.59;;;16.60;52.80
3796;BME280;1913;50.660;7.834;2023-06-14T00:51:48;152125.69;;;16.54;53.45
3796;BME280;1913;50.660;7.834;2023-06-14T00:54:14;152124.44;;;16.53;52.84
3796;BME280;1913;50.660;7.834;2023-06-14T00:56:40;152132.03;;;16.57;52.03
3796;BME280;1913;50.660;7.834;2023-06-14T00:59:05;152132.03;;;16.57;51.97
3796;BME280;1913;50.660;7.834;2023-06-14T01:01:31;152135.84;;;16.58;51.61
3796;BME280;1913;50.660;7.834;2023-06-14T01:03:59;152115.63;;;16.50;52.11
3796;BME280;1913;50.660;7.834;2023-06-14T01:06:45;152111.84;;;16.48;51.93
3796;BME280;1913;50.660;7.834;2023-06-14T01:09:37;152110.59;;;16.48;51.87
3796;BME280;1913;50.660;7.834;2023-06-14T01:12:17;152100.50;;;16.44;52.34
3796;BME280;1913;50.660;7.834;2023-06-14T01:14:47;152103.03;;;16.45;51.57
3796;BME280;1913;50.660;7.834;2023-06-14T01:17:13;152095.44;;;16.42;52.51
3796;BME280;1913;50.660;7.834;2023-06-14T01:19:42;152090.38;;;16.40;52.25
3796;BME280;1913;50.660;7.834;2023-06-14T01:22:08;152066.44;;;16.30;52.65
3796;BME280;1913;50.660;7.834;2023-06-14T01:24:34;152058.88;;;16.27;53.08
3796;BME280;1913;50.660;7.834;2023-06-14T01:27:00;152034.91;;;16.17;53.51
3796;BME280;1913;50.660;7.834;2023-06-14T01:29:28;152013.47;;;16.09;53.63
3796;BME280;1913;50.660;7.834;2023-06-14T01:31:58;152010.94;;;16.08;53.65
3796;BME280;1913;50.660;7.834;2023-06-14T01:34:24;151978.19;;;15.94;54.40
3796;BME280;1913;50.660;7.834;2023-06-14T01:36:49;151974.38;;;15.93;54.48
3796;BME280;1913;50.660;7.834;2023-06-14T01:39:15;151963.03;;;15.88;54.94
3796;BME280;1913;50.660;7.834;2023-06-14T01:41:43;151947.88;;;15.82;54.80
3796;BME280;1913;50.660;7.834;2023-06-14T01:44:10;151935.31;;;15.77;55.55
3796;BME280;1913;50.660;7.834;2023-06-14T01:46:36;151918.91;;;15.70;56.13
3796;BME280;1913;50.660;7.834;2023-06-14T01:49:02;151898.69;;;15.62;56.22
3796;BME280;1913;50.660;7.834;2023-06-14T01:51:27;151918.91;;;15.70;56.02
3796;BME280;1913;50.660;7.834;2023-06-14T01:53:53;151922.66;;;15.72;56.02
3796;BME280;1913;50.660;7.834;2023-06-14T01:56:18;151923.97;;;15.72;56.96
3796;BME280;1913;50.660;7.834;2023-06-14T01:58:43;151932.78;;;15.76;57.42
3796;BME280;1913;50.660;7.834;2023-06-14T02:01:08;151915.13;;;15.69;58.20
3796;BME280;1913;50.660;7.834;2023-06-14T02:03:34;151903.72;;;15.64;59.40
3796;BME280;1913;50.660;7.834;2023-06-14T02:05:59;151877.22;;;15.53;60.43
3796;BME280;1913;50.660;7.834;2023-06-14T02:08:24;151874.72;;;15.52;60.92
3796;BME280;1913;50.660;7.834;2023-06-14T02:10:50;151865.91;;;15.49;62.10
3796;BME280;1913;50.660;7.834;2023-06-14T02:13:16;151844.44;;;15.40;63.03
3796;BME280;1913;50.660;7.834;2023-06-14T02:15:41;151830.59;;;15.35;63.90
3796;BME280;1913;50.660;7.834;2023-06-14T02:18:09;151834.38;;;15.36;64.30
3796;BME280;1913;50.660;7.834;2023-06-14T02:20:35;151805.41;;;15.24;66.52
3796;BME280;1913;50.660;7.834;2023-06-14T02:23:01;151785.25;;;15.16;66.58
3796;BME280;1913;50.660;7.834;2023-06-14T02:25:26;151772.59;;;15.11;68.15
3796;BME280;1913;50.660;7.834;2023-06-14T02:27:53;151758.78;;;15.05;68.29
3796;BME280;1913;50.660;7.834;2023-06-14T02:30:20;151751.19;;;15.02;69.95
3796;BME280;1913;50.660;7.834;2023-06-14T02:32:45;151719.69;;;14.90;70.88
3796;BME280;1913;50.660;7.834;2023-06-14T02:35:12;151705.84;;;14.84;70.53
3796;BME280;1913;50.660;7.834;2023-06-14T02:37:38;151673.06;;;14.71;72.79
3796;BME280;1913;50.660;7.834;2023-06-14T02:40:04;151655.44;;;14.64;76.12
3796;BME280;1913;50.660;7.834;2023-06-14T02:42:32;151608.78;;;14.45;79.20
3796;BME280;1913;50.660;7.834;2023-06-14T02:44:57;151560.88;;;14.25;81.80
3796;BME280;1913;50.660;7.834;2023-06-14T02:47:22;151555.88;;;14.23;82.94
3796;BME280;1913;50.660;7.834;2023-06-14T02:49:48;151511.78;;;14.05;84.29
3796;BME280;1913;50.660;7.834;2023-06-14T02:52:13;151485.34;;;13.95;87.33
3796;BME280;1913;50.660;7.834;2023-06-14T02:54:39;151462.66;;;13.85;89.17
3796;BME280;1913;50.660;7.834;2023-06-14T02:57:05;151428.66;;;13.72;93.93
3796;BME280;1913;50.660;7.834;2023-06-14T02:59:32;151383.34;;;13.53;96.04
3796;BME280;1913;50.660;7.834;2023-06-14T03:01:57;151340.53;;;13.36;98.09
3796;BME280;1913;50.660;7.834;2023-06-14T03:04:22;151317.84;;;13.27;99.34
3796;BME280;1913;50.660;7.834;2023-06-14T03:06:51;151229.69;;;12.91;100.00
3796;BME280;1913;50.660;7.834;2023-06-14T03:09:16;151229.69;;;12.91;100.00
3796;BME280;1913;50.660;7.834;2023-06-14T03:11:41;151189.44;;;12.75;100.00
3796;BME280;1913;50.660;7.834;2023-06-14T03:14:07;151141.59;;;12.55;100.00
3796;BME280;1913;50.660;7.834;2023-06-14T03:16:33;151116.44;;;12.45;100.00
3796;BME280;1913;50.660;7.834;2023-06-14T03:18:59;151074.97;;;12.28;100.00
3796;BME280;1913;50.660;7.834;2023-06-14T03:21:24;151043.47;;;12.15;100.00
3796;BME280;1913;50.660;7.834;2023-06-14T03:23:51;151062.34;;;12.23;100.00
3796;BME280;1913;50.660;7.834;2023-06-14T03:26:32;151053.53;;;12.19;100.00
3796;BME280;1913;50.660;7.834;2023-06-14T03:28:59;151064.91;;;12.24;100.00
3796;BME280;1913;50.660;7.834;2023-06-14T03:31:24;151029.69;;;12.10;100.00
3796;BME280;1913;50.660;7.834;2023-06-14T03:33:50;151052.28;;;12.19;100.00
3796;BME280;1913;50.660;7.834;2023-06-14T03:36:15;151042.22;;;12.15;100.00
3796;BME280;1913;50.660;7.834;2023-06-14T03:38:40;151034.69;;;12.12;100.00
3796;BME280;1913;50.660;7.834;2023-06-14T03:44:28;151125.25;;;12.49;100.00
3796;BME280;1913;50.660;7.834;2023-06-14T03:46:53;151137.84;;;12.54;100.00
3796;BME280;1913;50.660;7.834;2023-06-14T03:49:18;151174.34;;;12.68;100.00
3796;BME280;1913;50.660;7.834;2023-06-14T03:51:44;151205.81;;;12.81;100.00
3796;BME280;1913;50.660;7.834;2023-06-14T03:54:10;151258.66;;;13.03;100.00
3796;BME280;1913;50.660;7.834;2023-06-14T03:56:35;151306.47;;;13.22;99.97
3796;BME280;1913;50.660;7.834;2023-06-14T03:59:01;151335.47;;;13.34;98.28
3796;BME280;1913;50.660;7.834;2023-06-14T04:01:27;151354.38;;;13.41;97.07
3796;BME280;1913;50.660;7.834;2023-06-14T04:03:55;151403.47;;;13.61;96.95
3796;BME280;1913;50.660;7.834;2023-06-14T04:06:20;151423.66;;;13.70;95.60
3796;BME280;1913;50.660;7.834;2023-06-14T04:08:46;151434.97;;;13.74;95.44
3796;BME280;1913;50.660;7.834;2023-06-14T04:11:11;151467.72;;;13.87;93.18
3796;BME280;1913;50.660;7.834;2023-06-14T04:17:32;151554.56;;;14.23;89.61
3796;BME280;1913;50.660;7.834;2023-06-14T04:24:00;151599.97;;;14.41;86.37
3796;BME280;1913;50.660;7.834;2023-06-14T04:26:30;151606.22;;;14.44;87.25
3796;BME280;1913;50.660;7.834;2023-06-14T04:28:59;151675.56;;;14.72;83.23
3796;BME280;1913;50.660;7.834;2023-06-14T04:32:02;151792.81;;;15.19;78.82
3796;BME280;1913;50.660;7.834;2023-06-14T04:34:28;151897.41;;;15.62;76.24
3796;BME280;1913;50.660;7.834;2023-06-14T04:36:59;151949.13;;;15.83;73.03
3796;BME280;1913;50.660;7.834;2023-06-14T04:39:26;152002.09;;;16.04;70.24
3796;BME280;1913;50.660;7.834;2023-06-14T04:41:52;152127.00;;;16.55;67.10
3796;BME280;1913;50.660;7.834;2023-06-14T04:44:22;152095.44;;;16.42;66.25
3796;BME280;1913;50.660;7.834;2023-06-14T04:46:49;152196.44;;;16.83;64.79
3796;BME280;1913;50.660;7.834;2023-06-14T04:49:15;152200.22;;;16.84;62.64
3796;BME280;1913;50.660;7.834;2023-06-14T04:51:42;152244.38;;;17.02;61.24
3796;BME280;1913;50.660;7.834;2023-06-14T04:54:08;152206.53;;;16.87;61.33
3796;BME280;1913;50.660;7.834;2023-06-14T04:56:35;152220.38;;;16.92;61.62
3796;BME280;1913;50.660;7.834;2023-06-14T04:59:02;152303.69;;;17.26;61.49
3796;BME280;1913;50.660;7.834;2023-06-14T05:01:30;152315.03;;;17.31;60.42
3796;BME280;1913;50.660;7.834;2023-06-14T05:03:57;152351.63;;;17.45;59.07
3796;BME280;1913;50.660;7.834;2023-06-14T05:06:22;152426.19;;;17.76;57.52
3796;BME280;1913;50.660;7.834;2023-06-14T05:08:47;152416.00;;;17.71;55.34
3796;BME280;1913;50.660;7.834;2023-06-14T05:11:12;152455.19;;;17.87;57.27
3796;BME280;1913;50.660;7.834;2023-06-14T05:13:38;152472.88;;;17.94;55.60
3796;BME280;1913;50.660;7.834;2023-06-14T05:16:05;152501.91;;;18.06;54.89
3796;BME280;1913;50.660;7.834;2023-06-14T05:18:31;152519.59;;;18.13;53.99
3796;BME280;1913;50.660;7.834;2023-06-14T05:20:59;152532.22;;;18.18;54.66
3796;BME280;1913;50.660;7.834;2023-06-14T05:23:24;152580.19;;;18.38;54.42
3796;BME280;1913;50.660;7.834;2023-06-14T05:25:50;152585.28;;;18.40;53.28
3796;BME280;1913;50.660;7.834;2023-06-14T05:28:15;152650.94;;;18.66;52.81
3796;BME280;1913;50.660;7.834;2023-06-14T05:30:41;152666.16;;;18.73;53.11
3796;BME280;1913;50.660;7.834;2023-06-14T05:33:07;152626.91;;;18.57;52.63
3796;BME280;1913;50.660;7.834;2023-06-14T05:35:32;152643.34;;;18.63;53.68
3796;BME280;1913;50.660;7.834;2023-06-14T05:37:58;152692.69;;;18.83;53.67
3796;BME280;1913;50.660;7.834;2023-06-14T05:40:23;152772.25;;;19.16;51.62
3796;BME280;1913;50.660;7.834;2023-06-14T05:42:48;152846.78;;;19.46;51.53
3796;BME280;1913;50.660;7.834;2023-06-14T05:45:14;152906.25;;;19.70;50.00
3796;BME280;1913;50.660;7.834;2023-06-14T05:47:41;152864.47;;;19.53;49.81
3796;BME280;1913;50.660;7.834;2023-06-14T05:50:07;152917.63;;;19.74;50.98
3796;BME280;1913;50.660;7.834;2023-06-14T05:52:33;153044.06;;;20.25;48.37
3796;BME280;1913;50.660;7.834;2023-06-14T05:54:58;153106.06;;;20.50;47.39
3796;BME280;1913;50.660;7.834;2023-06-14T05:57:24;153150.31;;;20.68;47.76
3796;BME280;1913;50.660;7.834;2023-06-14T05:59:49;153130.09;;;20.60;45.62
3796;BME280;1913;50.660;7.834;2023-06-14T06:02:15;153107.31;;;20.51;46.55
3796;BME280;1913;50.660;7.834;2023-06-14T06:04:40;153165.50;;;20.74;46.08
3796;BME280;1913;50.660;7.834;2023-06-14T06:07:06;153104.81;;;20.50;46.42
3796;BME280;1913;50.660;7.834;2023-06-14T06:09:32;153184.47;;;20.82;45.17
3796;BME280;1913;50.660;7.834;2023-06-14T06:11:57;153100.94;;;20.48;45.04
3796;BME280;1913;50.660;7.834;2023-06-14T06:14:22;153061.75;;;20.32;44.94
3796;BME280;1913;50.660;7.834;2023-06-14T06:16:48;153042.81;;;20.25;44.59
3796;BME280;1913;50.660;7.834;2023-06-14T06:19:13;153020.03;;;20.16;46.17
3796;BME280;1913;50.660;7.834;2023-06-14T06:21:38;153057.94;;;20.31;44.79
3796;BME280;1913;50.660;7.834;2023-06-14T06:24:05;152927.75;;;19.78;45.40
3796;BME280;1913;50.660;7.834;2023-06-14T06:26:31;152927.75;;;19.78;45.07
3796;BME280;1913;50.660;7.834;2023-06-14T06:28:57;152987.16;;;20.02;45.16
3796;BME280;1913;50.660;7.834;2023-06-14T06:31:23;152827.84;;;19.38;46.24
3796;BME280;1913;50.660;7.834;2023-06-14T06:33:48;152875.91;;;19.57;46.86
3796;BME280;1913;50.660;7.834;2023-06-14T06:36:13;153025.09;;;20.18;46.64
3796;BME280;1913;50.660;7.834;2023-06-14T06:38:39;153092.09;;;20.45;46.45
3796;BME280;1913;50.660;7.834;2023-06-14T06:41:04;153056.69;;;20.30;45.79
3796;BME280;1913;50.660;7.834;2023-06-14T06:43:30;153032.69;;;20.21;46.62
3796;BME280;1913;50.660;7.834;2023-06-14T06:45:55;153146.50;;;20.67;46.68
3796;BME280;1913;50.660;7.834;2023-06-14T06:48:20;153241.38;;;21.05;46.61
3796;BME280;1913;50.660;7.834;2023-06-14T06:50:45;153288.19;;;21.24;45.89
3796;BME280;1913;50.660;7.834;2023-06-14T06:53:11;153265.41;;;21.15;45.34
3796;BME280;1913;50.660;7.834;2023-06-14T06:55:36;153256.56;;;21.11;44.61
3796;BME280;1913;50.660;7.834;2023-06-14T06:58:01;153408.41;;;21.72;45.57
3796;BME280;1913;50.660;7.834;2023-06-14T07:00:29;153428.66;;;21.81;44.83
3796;BME280;1913;50.660;7.834;2023-06-14T07:02:55;153422.34;;;21.78;44.72
3796;BME280;1913;50.660;7.834;2023-06-14T07:05:20;153521.09;;;22.18;43.51
3796;BME280;1913;50.660;7.834;2023-06-14T07:07:45;153408.41;;;21.72;43.31
3796;BME280;1913;50.660;7.834;2023-06-14T07:10:11;153350.25;;;21.49;43.73
3796;BME280;1913;50.660;7.834;2023-06-14T07:12:36;153428.66;;;21.81;42.20
3796;BME280;1913;50.660;7.834;2023-06-14T07:15:07;153505.84;;;22.12;41.88
3796;BME280;1913;50.660;7.834;2023-06-14T07:17:33;153564.16;;;22.35;41.42
3796;BME280;1913;50.660;7.834;2023-06-14T07:19:59;153526.19;;;22.20;41.23
3796;BME280;1913;50.660;7.834;2023-06-14T07:22:26;153560.31;;;22.34;41.00
3796;BME280;1913;50.660;7.834;2023-06-14T07:24:51;153445.09;;;21.87;41.45
3796;BME280;1913;50.660;7.834;2023-06-14T07:27:16;153642.63;;;22.67;41.98
3796;BME280;1913;50.660;7.834;2023-06-14T07:29:42;153680.59;;;22.82;40.02
3796;BME280;1913;50.660;7.834;2023-06-14T07:32:07;153622.34;;;22.59;39.02
3796;BME280;1913;50.660;7.834;2023-06-14T07:34:33;153578.03;;;22.41;40.48
3796;BME280;1913;50.660;7.834;2023-06-14T07:36:58;153745.22;;;23.08;39.86
3796;BME280;1913;50.660;7.834;2023-06-14T07:39:23;153718.63;;;22.98;39.54
3796;BME280;1913;50.660;7.834;2023-06-14T07:41:49;153738.91;;;23.06;38.77
3796;BME280;1913;50.660;7.834;2023-06-14T07:44:14;153903.59;;;23.72;39.05
3796;BME280;1913;50.660;7.834;2023-06-14T07:46:41;153918.81;;;23.78;38.11
3796;BME280;1913;50.660;7.834;2023-06-14T07:49:06;153974.53;;;24.01;39.15
3796;BME280;1913;50.660;7.834;2023-06-14T07:51:32;153873.16;;;23.60;38.44
3796;BME280;1913;50.660;7.834;2023-06-14T07:53:59;153865.56;;;23.57;37.37
3796;BME280;1913;50.660;7.834;2023-06-14T07:56:26;153953.00;;;23.92;38.05
3796;BME280;1913;50.660;7.834;2023-06-14T07:58:51;153861.78;;;23.55;36.63
3796;BME280;1913;50.660;7.834;2023-06-14T08:01:17;153850.34;;;23.51;36.48
3796;BME280;1913;50.660;7.834;2023-06-14T08:03:42;153675.53;;;22.80;37.06
3796;BME280;1913;50.660;7.834;2023-06-14T08:06:08;153711.03;;;22.94;38.25
3796;BME280;1913;50.660;7.834;2023-06-14T08:08:33;153574.25;;;22.39;38.22
3796;BME280;1913;50.660;7.834;2023-06-14T08:10:58;153583.13;;;22.43;38.88
3796;BME280;1913;50.660;7.834;2023-06-14T08:13:24;153622.34;;;22.59;37.98
3796;BME280;1913;50.660;7.834;2023-06-14T08:15:49;153735.09;;;23.04;37.25
3796;BME280;1913;50.660;7.834;2023-06-14T08:18:15;153708.50;;;22.93;36.80
3796;BME280;1913;50.660;7.834;2023-06-14T08:20:40;153657.78;;;22.73;37.73
3796;BME280;1913;50.660;7.834;2023-06-14T08:23:06;153736.34;;;23.05;37.51
3796;BME280;1913;50.660;7.834;2023-06-14T08:25:32;153584.38;;;22.43;38.17
3796;BME280;1913;50.660;7.834;2023-06-14T08:27:58;153673.00;;;22.79;39.07
3796;BME280;1913;50.660;7.834;2023-06-14T08:30:24;153665.41;;;22.76;38.23
3796;BME280;1913;50.660;7.834;2023-06-14T08:32:50;153603.38;;;22.51;38.41
3796;BME280;1913;50.660;7.834;2023-06-14T08:35:16;153618.56;;;22.57;38.72
3796;BME280;1913;50.660;7.834;2023-06-14T08:37:43;153685.69;;;22.84;38.95
3796;BME280;1913;50.660;7.834;2023-06-14T08:40:18;153790.84;;;23.27;37.92
3796;BME280;1913;50.660;7.834;2023-06-14T08:42:44;153984.66;;;24.05;38.35
3796;BME280;1913;50.660;7.834;2023-06-14T08:45:11;153937.81;;;23.86;37.89
3796;BME280;1913;50.660;7.834;2023-06-14T08:47:36;154092.47;;;24.48;36.90
3796;BME280;1913;50.660;7.834;2023-06-14T08:50:02;153846.56;;;23.49;36.58
3796;BME280;1913;50.660;7.834;2023-06-14T08:52:33;153736.34;;;23.05;36.16
3796;BME280;1913;50.660;7.834;2023-06-14T08:55:06;153784.50;;;23.24;36.98
3796;BME280;1913;50.660;7.834;2023-06-14T08:57:32;153830.09;;;23.42;37.12
3796;BME280;1913;50.660;7.834;2023-06-14T08:59:59;153745.22;;;23.08;36.76
3796;BME280;1913;50.660;7.834;2023-06-14T09:02:30;153874.41;;;23.60;36.07
3796;BME280;1913;50.660;7.834;2023-06-14T09:04:55;154086.09;;;24.46;36.81
3796;BME280;1913;50.660;7.834;2023-06-14T09:07:25;154041.72;;;24.28;33.43
3796;BME280;1913;50.660;7.834;2023-06-14T09:10:08;153916.28;;;23.77;35.00
3796;BME280;1913;50.660;7.834;2023-06-14T09:12:35;153869.34;;;23.58;35.38
3796;BME280;1913;50.660;7.834;2023-06-14T09:15:00;154054.34;;;24.33;34.82
3796;BME280;1913;50.660;7.834;2023-06-14T09:17:32;154165.94;;;24.78;33.20
3796;BME280;1913;50.660;7.834;2023-06-14T09:19:58;154162.16;;;24.76;33.35
3796;BME280;1913;50.660;7.834;2023-06-14T09:22:24;154309.25;;;25.36;32.74
3796;BME280;1913;50.660;7.834;2023-06-14T09:24:49;154367.59;;;25.59;32.58
3796;BME280;1913;50.660;7.834;2023-06-14T09:27:15;154513.47;;;26.18;31.15
3796;BME280;1913;50.660;7.834;2023-06-14T09:29:41;154424.69;;;25.82;32.28
3796;BME280;1913;50.660;7.834;2023-06-14T09:32:06;154531.22;;;26.25;30.51
3796;BME280;1913;50.660;7.834;2023-06-14T09:34:33;154663.22;;;26.78;30.46
3796;BME280;1913;50.660;7.834;2023-06-14T09:36:58;154590.91;;;26.49;31.44
3796;BME280;1913;50.660;7.834;2023-06-14T09:39:23;154703.84;;;26.94;31.36
3796;BME280;1913;50.660;7.834;2023-06-14T09:41:50;154547.72;;;26.32;32.00
3796;BME280;1913;50.660;7.834;2023-06-14T09:44:15;154339.69;;;25.48;32.41
3796;BME280;1913;50.660;7.834;2023-06-14T09:46:43;154261.09;;;25.16;32.17
3796;BME280;1913;50.660;7.834;2023-06-14T09:49:09;154141.84;;;24.68;34.14
3796;BME280;1913;50.660;7.834;2023-06-14T09:51:37;154113.97;;;24.57;33.48
3796;BME280;1913;50.660;7.834;2023-06-14T09:54:08;154049.31;;;24.31;34.19
3796;BME280;1913;50.660;7.834;2023-06-14T09:56:44;154036.63;;;24.26;34.70
3796;BME280;1913;50.660;7.834;2023-06-14T09:59:12;153966.94;;;23.98;34.13
3796;BME280;1913;50.660;7.834;2023-06-14T10:01:44;154141.84;;;24.68;34.41
3796;BME280;1913;50.660;7.834;2023-06-14T10:04:11;154267.44;;;25.19;32.15
3796;BME280;1913;50.660;7.834;2023-06-14T10:06:43;154262.34;;;25.17;33.49
3796;BME280;1913;50.660;7.834;2023-06-14T10:09:11;154377.72;;;25.63;31.49
3796;BME280;1913;50.660;7.834;2023-06-14T10:11:38;154441.16;;;25.89;31.51
3796;BME280;1913;50.660;7.834;2023-06-14T10:14:10;154542.66;;;26.30;30.99
3796;BME280;1913;50.660;7.834;2023-06-14T10:16:45;154589.63;;;26.48;30.39
3796;BME280;1913;50.660;7.834;2023-06-14T10:19:29;154529.94;;;26.24;30.64
3796;BME280;1913;50.660;7.834;2023-06-14T10:24:45;154349.84;;;25.52;30.72
3796;BME280;1913;50.660;7.834;2023-06-14T10:27:14;154222.97;;;25.01;32.29
3796;BME280;1913;50.660;7.834;2023-06-14T10:32:23;154177.34;;;24.82;33.12
3796;BME280;1913;50.660;7.834;2023-06-14T10:34:59;154245.81;;;25.10;31.27
3796;BME280;1913;50.660;7.834;2023-06-14T10:37:25;154396.75;;;25.71;30.98
3796;BME280;1913;50.660;7.834;2023-06-14T10:39:51;154195.09;;;24.90;33.40
3796;BME280;1913;50.660;7.834;2023-06-14T10:42:17;154419.63;;;25.80;33.17
3796;BME280;1913;50.660;7.834;2023-06-14T10:44:43;154294.06;;;25.29;32.17
3796;BME280;1913;50.660;7.834;2023-06-14T10:47:28;154541.41;;;26.29;32.43
3796;BME280;1913;50.660;7.834;2023-06-14T10:49:55;154479.22;;;26.04;31.89
3796;BME280;1913;50.660;7.834;2023-06-14T10:52:25;154479.22;;;26.04;32.06
3796;BME280;1913;50.660;7.834;2023-06-14T10:55:00;154589.63;;;26.48;32.21
3796;BME280;1913;50.660;7.834;2023-06-14T10:57:26;154301.63;;;25.32;31.36
3796;BME280;1913;50.660;7.834;2023-06-14T10:59:52;154238.19;;;25.07;33.07
3796;BME280;1913;50.660;7.834;2023-06-14T11:04:52;154072.16;;;24.40;34.47
3796;BME280;1913;50.660;7.834;2023-06-14T11:10:14;154193.84;;;24.89;34.45
3796;BME280;1913;50.660;7.834;2023-06-14T11:12:48;154277.56;;;25.23;34.69
3796;BME280;1913;50.660;7.834;2023-06-14T11:15:14;154132.97;;;24.65;34.69
3796;BME280;1913;50.660;7.834;2023-06-14T11:17:50;154187.47;;;24.87;33.78
3796;BME280;1913;50.660;7.834;2023-06-14T11:20:16;154098.75;;;24.51;34.83
3796;BME280;1913;50.660;7.834;2023-06-14T11:22:42;154191.31;;;24.88;34.80
3796;BME280;1913;50.660;7.834;2023-06-14T11:25:14;154182.44;;;24.84;33.80
3796;BME280;1913;50.660;7.834;2023-06-14T11:27:41;154315.59;;;25.38;33.57
3796;BME280;1913;50.660;7.834;2023-06-14T11:30:07;154509.69;;;26.16;33.03
3796;BME280;1913;50.660;7.834;2023-06-14T11:32:34;154392.97;;;25.69;32.67
3796;BME280;1913;50.660;7.834;2023-06-14T11:35:00;154466.53;;;25.99;33.71
3796;BME280;1913;50.660;7.834;2023-06-14T11:37:26;154551.53;;;26.33;32.35
3796;BME280;1913;50.660;7.834;2023-06-14T11:39:56;154540.09;;;26.28;32.91
3796;BME280;1913;50.660;7.834;2023-06-14T11:42:22;154528.69;;;26.24;31.77
3796;BME280;1913;50.660;7.834;2023-06-14T11:44:48;154378.97;;;25.64;33.16
3796;BME280;1913;50.660;7.834;2023-06-14T11:47:14;154538.84;;;26.28;32.21
3796;BME280;1913;50.660;7.834;2023-06-14T11:49:39;154653.06;;;26.74;31.36
3796;BME280;1913;50.660;7.834;2023-06-14T11:52:05;154597.25;;;26.52;32.17
3796;BME280;1913;50.660;7.834;2023-06-14T11:54:32;154514.78;;;26.18;32.33
3796;BME280;1913;50.660;7.834;2023-06-14T11:56:58;154329.56;;;25.44;34.87
3796;BME280;1913;50.660;7.834;2023-06-14T11:59:24;154389.13;;;25.68;32.58
3796;BME280;1913;50.660;7.834;2023-06-14T12:01:49;154278.84;;;25.23;32.92
3796;BME280;1913;50.660;7.834;2023-06-14T12:04:23;154244.53;;;25.09;33.43
3796;BME280;1913;50.660;7.834;2023-06-14T12:06:48;154338.44;;;25.47;31.87
3796;BME280;1913;50.660;7.834;2023-06-14T12:09:14;154399.25;;;25.72;32.44
3796;BME280;1913;50.660;7.834;2023-06-14T12:11:43;154217.94;;;24.99;33.31
3796;BME280;1913;50.660;7.834;2023-06-14T12:14:08;154177.34;;;24.82;34.75
3796;BME280;1913;50.660;7.834;2023-06-14T12:16:37;154117.81;;;24.58;34.01
3796;BME280;1913;50.660;7.834;2023-06-14T12:19:15;154145.69;;;24.70;33.71
3796;BME280;1913;50.660;7.834;2023-06-14T12:21:43;154015.09;;;24.17;34.32
3796;BME280;1913;50.660;7.834;2023-06-14T12:24:12;153973.28;;;24.00;36.29
3796;BME280;1913;50.660;7.834;2023-06-14T12:26:38;154004.97;;;24.13;35.51
3796;BME280;1913;50.660;7.834;2023-06-14T12:29:06;154016.38;;;24.18;34.06
3796;BME280;1913;50.660;7.834;2023-06-14T12:31:32;154129.22;;;24.63;34.27
3796;BME280;1913;50.660;7.834;2023-06-14T12:33:57;154136.81;;;24.66;33.52
3796;BME280;1913;50.660;7.834;2023-06-14T12:36:23;154228.06;;;25.03;32.23
3796;BME280;1913;50.660;7.834;2023-06-14T12:38:48;154324.47;;;25.42;32.29
3796;BME280;1913;50.660;7.834;2023-06-14T12:41:16;154332.09;;;25.45;32.60
3796;BME280;1913;50.660;7.834;2023-06-14T12:43:43;154144.44;;;24.69;33.41
3796;BME280;1913;50.660;7.834;2023-06-14T12:46:08;154149.47;;;24.71;32.81
3796;BME280;1913;50.660;7.834;2023-06-14T12:48:33;154299.09;;;25.31;31.51
3796;BME280;1913;50.660;7.834;2023-06-14T12:50:59;154380.25;;;25.64;31.84
3796;BME280;1913;50.660;7.834;2023-06-14T12:53:24;154498.28;;;26.12;31.44
3796;BME280;1913;50.660;7.834;2023-06-14T12:55:50;154438.66;;;25.88;31.58
3796;BME280;1913;50.660;7.834;2023-06-14T12:58:15;154368.84;;;25.60;32.34
3796;BME280;1913;50.660;7.834;2023-06-14T13:00:42;154217.94;;;24.99;33.02
3796;BME280;1913;50.660;7.834;2023-06-14T13:03:09;154096.25;;;24.50;33.72
3796;BME280;1913;50.660;7.834;2023-06-14T13:05:35;154190.06;;;24.88;33.92
3796;BME280;1913;50.660;7.834;2023-06-14T13:08:00;154029.06;;;24.23;34.03
3796;BME280;1913;50.660;7.834;2023-06-14T13:10:26;153873.16;;;23.60;35.01
3796;BME280;1913;50.660;7.834;2023-06-14T13:12:51;153733.84;;;23.04;36.19
3796;BME280;1913;50.660;7.834;2023-06-14T13:15:17;153852.91;;;23.52;35.94
3796;BME280;1913;50.660;7.834;2023-06-14T13:17:42;153897.28;;;23.70;35.66
3796;BME280;1913;50.660;7.834;2023-06-14T13:20:13;153926.41;;;23.81;34.72
3796;BME280;1913;50.660;7.834;2023-06-14T13:22:39;154084.84;;;24.45;35.76
3796;BME280;1913;50.660;7.834;2023-06-14T13:25:05;154002.44;;;24.12;34.85
3796;BME280;1913;50.660;7.834;2023-06-14T13:27:30;154020.19;;;24.19;34.62
3796;BME280;1913;50.660;7.834;2023-06-14T13:29:56;154065.81;;;24.37;35.29